Terminal Aerodrome Forecast
Issued by NWS Central Illinois

Home | Current Version | Previous Version | Text Only | Print | Product List | Glossary On
Versions: 1 2 3 4 5 6 7 8 9 10 11 12 13 14 15
000
FTUS43 KILX 231100
TAFPIA
TAF
KPIA 231136Z 2312/2412 10008KT P6SM SCT100
     FM231500 12010KT P6SM BKN080
     FM240200 12012KT P6SM BKN050=

USA.gov is the U.S. government's official web portal to all federal, state and local government web resources and services.